首页
METAR-TAF:

METAR-TAF

机场 :

杜林機場

都灵, 意大利

纬度: 45-13N, 经度: 007-39E, 海拔: 301米

当前天气观测

该预报发布于34分钟前的00:50 UTC
风速2节,风向东南
温度 10°C
湿度 93%
气压 1020 hPa
能见度10公里或以上
1500米以下无云,无积雨云

METAR: LIMF 170050Z 13002KT CAVOK 10/09 Q1020

时间: 03:24 (01:24 UTC)

预报

该预报发布于2小时和24分钟前的23:00 UTC
预报有效从17日的 00点(UTC)到 17日的 24点(UTC)
风速5节,风向多变
能见度10公里或以上
1500米以下无云,无积雨云
短暂存在
从 17日的 02点(UTC)到 17日的 08点(UTC)
能見度: 3000
轻雾

TAF: LIMF 162300Z 1700/1724 VRB05KT CAVOK TEMPO 1702/1708 3000 BR

超过4000个机场的气象观测和天气预报(METAR&TAF报告)。

可查询的气象台以黄色和红色小点在地图上表示。

将鼠标移到小点上方,可查看气象台名称。

然后点击查看天气观测和预报。

如需切换地图:点击带黑十字的绿色按钮放大地图;点击带横线的绿色按钮缩小地图;或者点击绿色箭头查看邻近地区的地图。


METAR-TAF: